Time;durP1;ratioP1;P1;durP2;ratioP2;P2;SDS_P1;SDS_P2;PMS_P1;PMS_P2;Temp;Humidity;BMP_temperature;BMP_pressure;BME280_temperature;BME280_humidity;BME280_pressure;Samples;Min_cycle;Max_cycle;Signal;HPM_P1;HPM_P2
2021/03/22 15:02:36;;;;;;;12.93;4.57;;;;;;;3.58;51.28;98660.93;124101;1106;104290;-78
2021/03/22 15:05:04;;;;;;;17.40;5.03;;;;;;;3.70;51.14;98672.59;123982;1109;104271;-78
2021/03/22 15:07:31;;;;;;;15.10;4.73;;;;;;;3.79;50.79;98665.17;123994;1109;104421;-80
2021/03/22 15:10:00;;;;;;;21.17;5.50;;;;;;;3.82;50.91;98678.17;123935;1109;104216;-80
2021/03/22 15:12:27;;;;;;;23.30;6.70;;;;;;;3.83;50.68;98672.84;123842;1107;104335;-78
2021/03/22 15:14:54;;;;;;;20.10;6.13;;;;;;;3.81;50.89;98682.59;123796;1109;104207;-80
2021/03/22 15:17:21;;;;;;;20.53;5.63;;;;;;;3.80;51.49;98685.29;123805;1107;104236;-79
2021/03/22 15:19:48;;;;;;;17.33;5.13;;;;;;;3.77;51.02;98686.31;123746;1109;104354;-77
2021/03/22 15:22:15;;;;;;;19.23;5.10;;;;;;;3.67;50.54;98688.53;123776;1108;104649;-77
2021/03/22 15:24:42;;;;;;;15.83;4.40;;;;;;;3.58;50.78;98708.27;123832;1108;104268;-76
2021/03/22 15:27:10;;;;;;;15.60;4.77;;;;;;;3.53;51.28;98714.69;123722;1108;104293;-80
2021/03/22 15:29:37;;;;;;;17.67;4.93;;;;;;;3.46;51.39;98715.92;123747;1109;104613;-76
2021/03/22 15:32:04;;;;;;;17.37;4.33;;;;;;;3.43;51.02;98720.40;123627;1106;104643;-79
2021/03/22 15:34:31;;;;;;;15.20;4.78;;;;;;;3.29;50.74;98720.20;123612;1109;104165;-79
2021/03/22 15:37:00;;;;;;;17.07;5.27;;;;;;;3.12;50.95;98727.15;123781;1109;104297;-78
2021/03/22 15:39:27;;;;;;;15.43;6.07;;;;;;;3.02;51.47;98736.38;123675;1109;104210;-76
2021/03/22 15:41:54;;;;;;;15.40;4.53;;;;;;;2.95;51.26;98724.45;123946;1108;104620;-77
2021/03/22 15:44:21;;;;;;;13.07;4.13;;;;;;;2.89;51.27;98722.11;123891;1108;104258;-81
2021/03/22 15:46:48;;;;;;;15.97;5.03;;;;;;;2.87;51.50;98716.07;124004;1109;104200;-77
2021/03/22 15:49:16;;;;;;;22.10;6.80;;;;;;;2.89;52.04;98715.09;123987;1108;104268;-75
2021/03/22 15:51:44;;;;;;;24.10;7.87;;;;;;;2.93;51.92;98721.91;123968;1109;104179;-75
2021/03/22 15:54:11;;;;;;;24.50;5.23;;;;;;;2.91;51.26;98730.77;123999;1109;104274;-74
2021/03/22 15:56:38;;;;;;;22.40;8.70;;;;;;;2.73;51.18;98735.11;123910;1109;104210;-76
2021/03/22 15:59:05;;;;;;;21.40;7.73;;;;;;;2.60;51.32;98732.19;124084;1109;104204;-75
2021/03/22 16:01:32;;;;;;;27.57;10.30;;;;;;;2.51;51.98;98738.72;123983;1109;104188;-75
2021/03/22 16:04:00;;;;;;;26.40;8.17;;;;;;;2.45;51.80;98739.83;124039;1109;104210;-76
2021/03/22 16:06:28;;;;;;;21.07;7.25;;;;;;;2.42;51.71;98747.00;123973;1109;104213;-76
2021/03/22 16:08:56;;;;;;;25.05;10.30;;;;;;;2.41;52.62;98754.05;124001;1109;104175;-77
2021/03/22 16:11:34;;;;;;;23.80;10.10;;;;;;;2.47;52.74;98743.23;123918;1109;104184;-76
2021/03/22 16:14:01;;;;;;;23.87;8.70;;;;;;;2.55;52.13;98739.42;123819;1109;104384;-78
2021/03/22 16:16:28;;;;;;;15.47;5.63;;;;;;;2.53;52.21;98737.72;123848;1109;104470;-76
2021/03/22 16:18:56;;;;;;;15.67;6.00;;;;;;;2.47;52.55;98740.61;123873;1109;104302;-76
2021/03/22 16:21:24;;;;;;;19.87;6.87;;;;;;;2.48;52.44;98738.86;123853;1108;104214;-76
2021/03/22 16:23:51;;;;;;;22.57;8.63;;;;;;;2.49;53.10;98745.81;123964;1109;104667;-76
2021/03/22 16:26:21;;;;;;;35.93;16.17;;;;;;;2.46;52.61;98752.03;124024;1109;104217;-76
2021/03/22 16:28:48;;;;;;;35.70;14.33;;;;;;;2.45;52.76;98762.62;124007;1108;104217;-76
2021/03/22 16:31:15;;;;;;;40.20;16.43;;;;;;;2.40;52.74;98754.96;123977;1109;104325;-76
2021/03/22 16:33:45;;;;;;;45.13;17.13;;;;;;;2.39;52.74;98755.88;123993;1108;104181;-75
2021/03/22 16:36:15;;;;;;;38.07;14.73;;;;;;;2.39;53.26;98761.13;124074;1106;104271;-76
2021/03/22 16:38:42;;;;;;;39.50;16.20;;;;;;;2.41;53.53;98763.67;124096;1108;104270;-75
2021/03/22 16:41:20;;;;;;;37.07;15.60;;;;;;;2.41;53.01;98767.16;124008;1109;104217;-75
2021/03/22 16:43:48;;;;;;;37.60;15.43;;;;;;;2.38;53.22;98767.30;124041;1108;104195;-72
2021/03/22 16:46:23;;;;;;;40.80;18.57;;;;;;;2.37;52.89;98769.05;124031;1109;104181;-79
2021/03/22 16:48:52;;;;;;;41.13;20.40;;;;;;;2.38;53.72;98769.92;124078;1109;101814;-75
2021/03/22 16:51:21;;;;;;;40.73;16.77;;;;;;;2.40;53.66;98778.59;123827;1109;104248;-77
2021/03/22 16:53:52;;;;;;;40.87;17.27;;;;;;;2.42;52.94;98768.00;123844;1109;104198;-76
2021/03/22 16:56:20;;;;;;;41.87;21.63;;;;;;;2.38;52.77;98768.14;123816;1109;104405;-73
2021/03/22 16:58:52;;;;;;;49.40;22.43;;;;;;;2.36;53.77;98774.39;123808;1108;104317;-76
2021/03/22 17:01:20;;;;;;;40.87;20.17;;;;;;;2.31;53.93;98777.19;123864;1107;104162;-75
2021/03/22 17:03:48;;;;;;;41.97;19.70;;;;;;;2.26;53.61;98787.03;123881;1109;104185;-75
2021/03/22 17:06:16;;;;;;;39.67;18.40;;;;;;;2.23;53.42;98795.91;123946;1109;104156;-75
2021/03/22 17:08:43;;;;;;;51.28;25.37;;;;;;;2.17;53.67;98800.58;123876;1109;104318;-74
2021/03/22 17:11:10;;;;;;;57.40;28.73;;;;;;;2.06;53.41;98806.25;124135;1109;104265;-76
2021/03/22 17:13:38;;;;;;;53.70;28.10;;;;;;;1.97;53.64;98812.75;123920;1108;104194;-78
2021/03/22 17:16:05;;;;;;;53.63;24.63;;;;;;;1.89;53.72;98815.70;123867;1109;104314;-75
2021/03/22 17:18:33;;;;;;;53.30;26.17;;;;;;;1.82;53.78;98819.48;123902;1109;104153;-76
2021/03/22 17:21:01;;;;;;;48.68;24.18;;;;;;;1.80;53.44;98820.47;123857;1107;104306;-75
2021/03/22 17:23:28;;;;;;;52.93;23.70;;;;;;;1.78;53.95;98833.63;123949;1107;104243;-75
2021/03/22 17:25:59;;;;;;;57.30;25.50;;;;;;;1.76;54.02;98843.33;123896;1109;104217;-76
2021/03/22 17:28:39;;;;;;;45.90;19.40;;;;;;;1.67;53.66;98855.05;123963;1109;104251;-77
2021/03/22 17:31:08;;;;;;;38.40;15.83;;;;;;;1.61;54.09;98868.40;123961;1107;104241;-76
2021/03/22 17:33:38;;;;;;;51.20;24.33;;;;;;;1.61;54.04;98873.64;123835;1108;104258;-77
2021/03/22 17:36:06;;;;;;;34.87;16.93;;;;;;;1.60;54.15;98874.55;123783;1109;104159;-80
2021/03/22 17:38:43;;;;;;;32.00;14.07;;;;;;;1.60;54.50;98864.06;123740;1108;104219;-75
2021/03/22 17:41:14;;;;;;;32.10;12.80;;;;;;;1.60;54.45;98867.56;123815;1107;104178;-73
2021/03/22 17:43:42;;;;;;;45.13;17.50;;;;;;;1.59;54.40;98865.85;123803;1109;104259;-74
2021/03/22 17:46:14;;;;;;;58.97;25.40;;;;;;;1.59;54.53;98862.36;123900;1106;104264;-73
2021/03/22 17:48:42;;;;;;;31.37;11.55;;;;;;;1.59;54.08;98857.98;123930;1109;104224;-74
2021/03/22 17:51:11;;;;;;;24.27;8.67;;;;;;;1.49;54.13;98851.38;123976;1109;104213;-72
2021/03/22 17:53:39;;;;;;;20.75;7.90;;;;;;;1.41;54.41;98856.94;123867;1109;104169;-73
2021/03/22 17:56:08;;;;;;;24.10;9.25;;;;;;;1.39;54.96;98858.76;123795;1109;104264;-74
2021/03/22 17:58:40;;;;;;;30.17;11.25;;;;;;;1.42;54.79;98858.64;123766;1109;104259;-77
2021/03/22 18:01:07;;;;;;;34.33;13.53;;;;;;;1.47;55.25;98863.70;123799;1109;104184;-77
2021/03/22 18:03:38;;;;;;;50.07;21.27;;;;;;;1.46;54.79;98868.06;123818;1109;104306;-74
2021/03/22 18:06:06;;;;;;;76.93;34.00;;;;;;;1.44;54.60;98869.89;123877;1109;104262;-84
2021/03/22 18:08:33;;;;;;;73.50;32.13;;;;;;;1.40;54.86;98876.20;124313;1109;104169;-82
2021/03/22 18:11:04;;;;;;;45.37;19.90;;;;;;;1.30;54.32;98877.45;124226;1109;104165;-83
2021/03/22 18:13:40;;;;;;;36.27;14.37;;;;;;;1.21;54.65;98872.55;124318;1107;104458;-83
2021/03/22 18:16:12;;;;;;;28.70;12.00;;;;;;;1.13;54.83;98881.54;123800;1109;104162;-83
2021/03/22 18:18:45;;;;;;;25.53;11.03;;;;;;;1.13;55.02;98883.33;124270;1106;104261;-84
2021/03/22 18:21:11;;;;;;;31.60;14.80;;;;;;;1.10;55.49;98881.66;124393;1109;104159;-80
2021/03/22 18:23:39;;;;;;;35.57;17.53;;;;;;;1.13;55.42;98889.41;123936;1109;104332;-81
2021/03/22 18:26:06;;;;;;;42.93;19.70;;;;;;;1.15;55.07;98889.36;123900;1109;104185;-80
2021/03/22 18:28:33;;;;;;;54.57;22.83;;;;;;;1.14;55.61;98892.89;123929;1106;104236;-76
2021/03/22 18:31:01;;;;;;;58.70;27.52;;;;;;;1.13;55.39;98899.05;123936;1109;104168;-78
2021/03/22 18:33:29;;;;;;;50.20;22.13;;;;;;;1.13;55.26;98901.66;123993;1109;104240;-79
2021/03/22 18:35:56;;;;;;;41.58;20.05;;;;;;;1.12;55.80;98905.19;123962;1109;104191;-80
2021/03/22 18:38:25;;;;;;;40.90;18.10;;;;;;;1.10;55.67;98907.85;123883;1108;104322;-77
2021/03/22 18:40:54;;;;;;;41.33;18.83;;;;;;;1.06;56.03;98911.48;124012;1109;104319;-78
2021/03/22 18:43:25;;;;;;;47.77;23.57;;;;;;;1.06;55.64;98921.13;123967;1109;104362;-76
2021/03/22 18:45:55;;;;;;;94.33;47.97;;;;;;;1.04;55.81;98918.55;123969;1108;104676;-75
2021/03/22 18:48:24;;;;;;;64.85;34.60;;;;;;;1.06;56.03;98921.13;123949;1109;104185;-76
2021/03/22 18:50:53;;;;;;;61.97;29.00;;;;;;;1.04;56.06;98926.41;124019;1109;104175;-75
2021/03/22 18:53:22;;;;;;;56.40;30.37;;;;;;;1.00;55.59;98920.44;124031;1107;104306;-80
2021/03/22 18:55:49;;;;;;;59.70;29.30;;;;;;;0.98;55.85;98924.88;123887;1108;104570;-74
2021/03/22 18:58:16;;;;;;;62.13;30.00;;;;;;;0.95;55.72;98924.98;123907;1109;104220;-79
2021/03/22 19:00:45;;;;;;;55.67;27.33;;;;;;;0.91;56.13;98923.38;123869;1109;104229;-80
2021/03/22 19:03:18;;;;;;;55.15;29.10;;;;;;;0.85;56.15;98934.06;123727;1108;104226;-82
2021/03/22 19:05:46;;;;;;;59.70;29.27;;;;;;;0.80;56.27;98928.16;123839;1109;104233;-82
2021/03/22 19:08:13;;;;;;;57.73;31.97;;;;;;;0.74;55.97;98934.44;124296;1109;104217;-80
2021/03/22 19:10:45;;;;;;;60.53;26.97;;;;;;;0.71;56.05;98932.80;123956;1109;104255;-80
2021/03/22 19:13:15;;;;;;;65.73;31.73;;;;;;;0.67;56.40;98935.56;124071;1109;104169;-82
2021/03/22 19:15:43;;;;;;;62.45;27.85;;;;;;;0.65;56.61;98938.25;124463;1108;104220;-81
2021/03/22 19:18:12;;;;;;;64.10;27.07;;;;;;;0.60;56.31;98940.16;123857;1108;104270;-79
2021/03/22 19:20:42;;;;;;;75.17;37.10;;;;;;;0.58;56.80;98948.08;123921;1108;104168;-78
2021/03/22 19:23:33;;;;;;;65.80;29.00;;;;;;;0.57;56.23;98945.50;123907;1108;104452;-77
2021/03/22 19:26:03;;;;;;;65.00;29.67;;;;;;;0.50;56.83;98943.98;123837;1109;104184;-78
2021/03/22 19:28:30;;;;;;;64.47;28.03;;;;;;;0.45;56.23;98944.16;123886;1109;104184;-78
2021/03/22 19:30:58;;;;;;;68.73;33.10;;;;;;;0.36;56.64;98944.45;123873;1109;104302;-77
2021/03/22 19:33:26;;;;;;;60.10;27.27;;;;;;;0.28;56.47;98944.71;123979;1109;104261;-78
2021/03/22 19:35:56;;;;;;;61.50;26.30;;;;;;;0.26;56.16;98963.05;123889;1109;104217;-77
2021/03/22 19:38:25;;;;;;;52.27;22.97;;;;;;;0.26;56.56;98952.59;123804;1109;104254;-77
2021/03/22 19:40:58;;;;;;;50.90;23.73;;;;;;;0.20;56.26;98952.81;123821;1109;104269;-83
2021/03/22 19:43:28;;;;;;;53.17;25.73;;;;;;;0.18;56.56;98956.37;123843;1109;104712;-83
2021/03/22 19:45:57;;;;;;;60.77;24.90;;;;;;;0.18;56.98;98962.47;124213;1109;104265;-81
2021/03/22 19:48:24;;;;;;;50.77;23.40;;;;;;;0.18;57.09;98958.98;124414;1108;104192;-79
2021/03/22 19:50:56;;;;;;;54.43;24.13;;;;;;;0.18;56.52;98962.47;123882;1109;104339;-80
2021/03/22 19:53:32;;;;;;;53.67;24.20;;;;;;;0.18;57.24;98962.47;124089;1109;104162;-79
2021/03/22 19:56:03;;;;;;;48.10;21.63;;;;;;;0.17;56.72;98955.53;123904;1109;104162;-79
2021/03/22 19:58:30;;;;;;;53.13;23.83;;;;;;;0.14;56.81;98948.62;124013;1109;104216;-79
2021/03/22 20:01:04;;;;;;;45.97;20.40;;;;;;;0.11;56.68;98951.33;123878;1109;104190;-78
2021/03/22 20:03:32;;;;;;;55.17;24.53;;;;;;;0.11;56.91;98948.71;123863;1109;104243;-78
2021/03/22 20:06:01;;;;;;;56.67;27.27;;;;;;;0.12;56.66;98955.66;123653;1108;104172;-79
2021/03/22 20:08:29;;;;;;;49.10;22.07;;;;;;;0.11;57.23;98950.48;123872;1109;104175;-81
2021/03/22 20:10:57;;;;;;;48.77;24.47;;;;;;;0.07;57.57;98957.55;123874;1109;104286;-81
2021/03/22 20:13:29;;;;;;;53.50;25.53;;;;;;;0.08;57.34;98955.81;124029;1108;104184;-79
2021/03/22 20:15:58;;;;;;;48.77;22.27;;;;;;;0.09;57.55;98955.75;123813;1109;104274;-81
2021/03/22 20:18:27;;;;;;;49.10;23.10;;;;;;;0.09;56.51;98963.59;123672;1109;104261;-80
2021/03/22 20:21:01;;;;;;;56.93;23.73;;;;;;;0.08;57.21;98961.05;123721;1109;104197;-76
2021/03/22 20:23:30;;;;;;;;;;;;;;;0.08;58.27;98963.66;123769;1109;104233;-80
2021/03/22 20:26:01;;;;;;;53.00;23.17;;;;;;;0.07;57.23;98960.17;123800;1109;104272;-80
2021/03/22 20:28:37;;;;;;;47.07;21.07;;;;;;;0.10;57.46;98961.86;123818;1108;104212;-80
2021/03/22 20:31:10;;;;;;;45.53;19.67;;;;;;;0.10;57.96;98964.47;123843;1109;104264;-75
2021/03/22 20:33:40;;;;;;;45.40;20.43;;;;;;;0.10;57.97;98962.70;124673;1109;104226;-78
2021/03/22 20:36:13;;;;;;;44.10;20.70;;;;;;;0.10;57.71;98967.92;124042;1109;104255;-78
2021/03/22 20:38:43;;;;;;;48.87;20.13;;;;;;;0.13;57.38;98969.61;124372;1109;104286;-80
2021/03/22 20:41:32;;;;;;;38.07;17.43;;;;;;;0.14;57.86;98979.16;123810;1109;104316;-80
2021/03/22 20:45:22;;;;;;;41.87;18.67;;;;;;;0.13;58.19;98983.52;115352;1193;103188;-79
2021/03/22 20:47:50;;;;;;;45.07;20.53;;;;;;;0.16;57.77;98990.44;115051;1199;103130;-79
2021/03/22 20:50:21;;;;;;;45.63;21.07;;;;;;;0.17;57.76;98997.38;115264;1199;103056;-79
2021/03/22 20:52:53;;;;;;;47.60;20.95;;;;;;;0.17;58.11;98991.28;115234;1200;102524;-78
2021/03/22 20:55:25;;;;;;;44.55;21.63;;;;;;;0.12;57.85;98981.81;115625;1199;103030;-78
2021/03/22 20:57:51;;;;;;;51.67;23.20;;;;;;;0.12;57.93;98979.20;114977;1200;103031;-79
2021/03/22 21:00:29;;;;;;;44.23;19.57;;;;;;;0.13;58.50;98980.07;114929;1200;103159;-78
2021/03/22 21:02:58;;;;;;;52.00;24.20;;;;;;;0.12;58.31;98983.59;115131;1200;104692;-78
2021/03/22 21:05:30;;;;;;;58.25;25.35;;;;;;;0.12;58.34;98980.97;115379;1199;103188;-79
2021/03/22 21:08:03;;;;;;;53.33;24.60;;;;;;;0.13;58.03;98980.91;115207;1199;103120;-78
2021/03/22 21:10:34;;;;;;;52.00;23.83;;;;;;;0.14;58.71;98985.23;114954;1200;103130;-79
2021/03/22 21:13:03;;;;;;;55.80;26.13;;;;;;;0.14;58.33;98984.40;115116;1199;103033;-78
2021/03/22 21:15:35;;;;;;;48.35;21.55;;;;;;;0.18;58.03;98985.14;115497;1200;103069;-77
2021/03/22 21:18:06;;;;;;;54.83;26.40;;;;;;;0.16;58.01;98976.48;114988;1199;103009;-76
2021/03/22 21:20:36;;;;;;;49.10;23.60;;;;;;;0.17;58.67;98981.69;114820;1199;103043;-76
2021/03/22 21:23:09;;;;;;;56.50;25.90;;;;;;;0.19;58.08;98981.63;115010;1199;103114;-78
2021/03/22 21:25:42;;;;;;;55.35;27.13;;;;;;;0.22;58.33;98976.30;115098;1200;103027;-79
2021/03/22 21:28:12;;;;;;;50.53;23.57;;;;;;;0.24;58.43;98984.95;115095;1200;103136;-78
2021/03/22 21:30:45;;;;;;;47.95;21.95;;;;;;;0.25;58.38;98984.05;114846;1200;103120;-78
2021/03/22 21:33:14;;;;;;;60.75;25.75;;;;;;;0.25;58.38;98977.04;114931;1200;103060;-78
2021/03/22 21:35:47;;;;;;;62.03;27.73;;;;;;;0.28;58.93;98989.19;115257;1200;103198;-79
2021/03/22 21:38:18;;;;;;;58.03;28.37;;;;;;;0.28;57.95;98984.80;115477;1200;103111;-79
2021/03/22 21:40:46;;;;;;;57.60;26.35;;;;;;;0.29;58.59;98990.91;115103;1199;103147;-78
2021/03/22 21:43:18;;;;;;;60.15;26.95;;;;;;;0.29;58.77;98978.66;115013;1200;103182;-80
2021/03/22 21:45:49;;;;;;;56.67;28.53;;;;;;;0.31;58.37;98993.45;115180;1199;103133;-79
2021/03/22 21:48:18;;;;;;;58.20;25.80;;;;;;;0.30;58.51;98987.38;115038;1200;103136;-80
2021/03/22 21:50:50;;;;;;;58.90;28.03;;;;;;;0.31;58.89;98985.61;115699;1199;103165;-80
2021/03/22 21:53:31;;;;;;;52.73;23.40;;;;;;;0.32;58.33;98987.31;115030;1198;103025;-79
2021/03/22 21:56:04;;;;;;;54.50;23.87;;;;;;;0.32;58.53;98985.57;115063;1200;103101;-80
2021/03/22 21:58:31;;;;;;;44.33;20.70;;;;;;;0.33;58.87;98979.44;114944;1200;103133;-79
2021/03/22 22:00:59;;;;;;;51.00;23.23;;;;;;;0.34;58.42;98983.77;114998;1199;102184;-80
2021/03/22 22:03:31;;;;;;;49.05;22.90;;;;;;;0.34;58.57;98978.53;114883;1199;103062;-79
2021/03/22 22:06:07;;;;;;;55.37;25.97;;;;;;;0.34;58.66;98975.05;115018;1200;103043;-80
2021/03/22 22:08:34;;;;;;;59.30;27.50;;;;;;;0.34;58.73;98981.14;114915;1199;103146;-79
2021/03/22 22:11:02;;;;;;;55.53;24.63;;;;;;;0.33;58.77;98973.33;114955;1199;103063;-78
2021/03/22 22:13:30;;;;;;;57.30;25.37;;;;;;;0.32;59.02;98985.57;115421;1200;102874;-78
2021/03/22 22:16:00;;;;;;;55.37;24.77;;;;;;;0.29;58.79;98978.66;114967;1200;103548;-79
2021/03/22 22:18:28;;;;;;;55.60;24.93;;;;;;;0.25;58.85;98987.51;115240;1199;103027;-79
2021/03/22 22:20:55;;;;;;;54.90;23.05;;;;;;;0.25;59.02;98989.28;114855;1199;103184;-78
2021/03/22 22:23:22;;;;;;;55.43;24.80;;;;;;;0.25;58.75;98994.52;114833;1199;103073;-76
2021/03/22 22:25:49;;;;;;;56.40;24.80;;;;;;;0.23;58.93;98993.70;114993;1200;103057;-77
2021/03/22 22:28:17;;;;;;;50.18;24.00;;;;;;;0.23;58.97;98999.78;114908;1200;103076;-76
2021/03/22 22:30:44;;;;;;;64.55;25.90;;;;;;;0.23;59.17;98999.78;114984;1199;101388;-78
2021/03/22 22:33:11;;;;;;;61.90;26.73;;;;;;;0.22;58.88;99002.46;115676;1199;103182;-78
2021/03/22 22:35:44;;;;;;;56.60;25.30;;;;;;;0.19;58.65;98995.58;115113;1199;103131;-78
2021/03/22 22:38:14;;;;;;;48.80;21.45;;;;;;;0.19;59.13;99000.81;114943;1199;103092;-78
2021/03/22 22:40:48;;;;;;;59.27;26.03;;;;;;;0.19;59.17;99010.40;115416;1198;103111;-76
2021/03/22 22:43:19;;;;;;;63.38;26.53;;;;;;;0.20;59.53;99009.50;115046;1199;103146;-76
2021/03/22 22:45:50;;;;;;;53.20;25.37;;;;;;;0.19;59.18;99015.63;115072;1200;103129;-77
2021/03/22 22:48:21;;;;;;;48.65;19.90;;;;;;;0.16;59.55;99007.88;115685;1199;103108;-77
2021/03/22 22:50:49;;;;;;;58.50;27.35;;;;;;;0.09;59.23;99012.45;114913;1198;103232;-77
2021/03/22 22:53:16;;;;;;;62.53;26.83;;;;;;;0.05;59.28;99006.44;114907;1200;103142;-76
2021/03/22 22:55:48;;;;;;;62.23;26.53;;;;;;;0.05;59.67;99010.83;114900;1199;103695;-76
2021/03/22 22:58:17;;;;;;;56.80;25.97;;;;;;;0.03;59.19;99003.02;114936;1200;104571;-77
2021/03/22 23:00:50;;;;;;;55.80;25.35;;;;;;;0.01;59.93;99007.44;114926;1200;103137;-78
2021/03/22 23:03:24;;;;;;;54.75;23.75;;;;;;;0.01;59.25;99014.44;114951;1199;103133;-78
2021/03/22 23:05:54;;;;;;;58.80;25.60;;;;;;;0.00;59.50;99013.59;115383;1199;103149;-77
2021/03/22 23:08:40;;;;;;;55.95;24.10;;;;;;;-0.01;59.59;99020.58;115690;1200;103025;-78
2021/03/22 23:11:16;;;;;;;47.30;20.80;;;;;;;0.01;59.51;99014.44;114979;1199;103178;-78
2021/03/22 23:13:46;;;;;;;51.65;23.85;;;;;;;0.03;59.89;99025.71;114815;1199;102954;-79
2021/03/22 23:16:20;;;;;;;52.23;24.10;;;;;;;0.04;60.02;99009.95;115179;1199;103495;-78
2021/03/22 23:18:53;;;;;;;42.87;18.63;;;;;;;0.05;59.52;99010.83;114986;1200;103002;-77
2021/03/22 23:21:28;;;;;;;48.85;21.30;;;;;;;0.05;59.32;99021.30;115044;1199;103597;-77
2021/03/22 23:24:10;;;;;;;51.03;22.87;;;;;;;0.07;60.13;99030.79;115091;1199;103184;-77
2021/03/22 23:26:38;;;;;;;49.87;21.67;;;;;;;0.10;59.69;99019.40;115022;1200;103255;-77
2021/03/22 23:29:17;;;;;;;53.10;22.77;;;;;;;0.09;60.14;99013.30;115002;1200;103134;-78
2021/03/22 23:31:49;;;;;;;51.20;22.17;;;;;;;0.09;59.33;99010.67;114982;1199;103127;-79
2021/03/22 23:34:20;;;;;;;45.47;20.67;;;;;;;0.10;59.61;99012.39;115115;1199;103561;-78
2021/03/22 23:36:47;;;;;;;49.53;21.17;;;;;;;0.12;59.59;99012.36;115026;1200;103056;-79
2021/03/22 23:39:28;;;;;;;46.20;22.17;;;;;;;0.13;59.83;99012.30;114853;1200;103178;-81
2021/03/22 23:41:59;;;;;;;44.80;20.60;;;;;;;0.17;60.32;99014.82;115695;1200;103028;-80
2021/03/22 23:44:27;;;;;;;38.40;17.40;;;;;;;0.18;60.05;99011.30;115051;1199;103130;-80
2021/03/22 23:46:54;;;;;;;43.15;20.10;;;;;;;0.19;60.10;99013.89;116350;1199;100905;-80
2021/03/22 23:49:25;;;;;;;45.83;19.03;;;;;;;0.21;60.16;99012.05;115065;1199;103175;-80
2021/03/22 23:52:00;;;;;;;45.53;21.10;;;;;;;0.24;60.37;99016.34;115024;1200;103101;-81
2021/03/22 23:54:34;;;;;;;38.97;18.07;;;;;;;0.24;59.90;99017.19;114961;1200;103082;-80
2021/03/22 23:57:01;;;;;;;43.83;18.87;;;;;;;0.25;59.97;99004.98;114973;1200;103174;-79
2021/03/22 23:59:30;;;;;;;41.30;17.73;;;;;;;0.25;59.94;99002.36;115036;1199;103079;-77
